Main Content

NOTICE: Although all weather products are taken from the National Weather Service, this data should be used only as a supplement to a formal weather briefing.

Last Updated: Tuesday, September 27th, 2022, 1:06 pm
Information on this page is updated every 5 minutes.


METARS

KMDH 271752Z 30009G19KT 10SM CLR 23/01 A3018 RMK AO2 SLP218 T02330011 10239

KMDH 271652Z 34009KT 10SM CLR 23/03 A3018 RMK AO2 SLP219 T02280028

KMDH 271552Z 32011KT 10SM CLR 21/04 A3018 RMK AO2 SLP220 T02110039

KMWA 271745Z 32011G19KT 10SM CLR 23/02 A3017

KMWA 271645Z 30012G17KT 10SM CLR 21/03 A3018

KMWA 271545Z 30007KT 10SM CLR 19/05 A3018

KCGI 271753Z 32010G20KT 10SM CLR 25/03 A3017 RMK AO2 SLP214 T02500033 10250

KCGI 271653Z 34008G17KT 10SM CLR 23/04 A3018 RMK AO2 SLP218 T02330039

KCGI 271553Z 32008KT 10SM CLR 22/05 A3018 RMK AO2 SLP219 T02220050

KSAR 271715Z AUTO 30007KT 10SM CLR 21/04 A3020 RMK AO2 T02120035

KSAR 271655Z AUTO 31008G15KT 280V340 10SM CLR 21/03 A3020 RMK AO2 T02060029

KSAR 271635Z AUTO 32009KT 10SM CLR 20/04 A3020 RMK AO2 T02010043

KSAR 271615Z AUTO 32008KT 10SM CLR 20/05 A3020 RMK AO2 T01960045

KSAR 271555Z AUTO 31007KT 10SM CLR 19/04 A3020 RMK AO2 T01890042

KSAR 271535Z AUTO 30003KT 10SM CLR 18/05 A3020 RMK AO2 T01840049

KSAR 271515Z AUTO 31004KT 10SM CLR 17/05 A3020 RMK AO2 T01730052

KFAM 271656Z AUTO 31006KT 10SM CLR 21/04 A3021 RMK AO2 SLP236 T02060044

KFAM 271556Z AUTO VRB05KT 10SM CLR 19/06 A3022 RMK AO2 SLP238 T01940056

KMVN 271756Z AUTO VRB06KT 10SM CLR 21/04 A3018 RMK AO2 SLP221 T02110039 10211

KMVN 271656Z AUTO 28008KT 240V320 10SM CLR 20/01 A3017 RMK AO2 SLP221 T02000011

KMVN 271556Z AUTO VRB04KT 10SM CLR 18/05 A3018 RMK AO2 SLP223 T01830050

KHSB 271755Z AUTO 31016KT 10SM CLR 22/07 A3017 RMK AO2 T02150067 10215 20055

KHSB 271735Z AUTO 31010G16KT 10SM CLR 21/07 A3017 RMK AO2 T02110069

KHSB 271715Z AUTO 33010G20KT 10SM CLR 21/07 A3018 RMK AO2 T02120074

KCIR 271755Z AUTO 01012G17KT 10SM CLR 24/04 A3018 RMK AO2 T02400039 10241 20070

KCIR 271735Z AUTO 01008KT 10SM CLR 24/05 A3018 RMK AO2 T02390050

KCIR 271715Z AUTO 35010G14KT 10SM CLR 24/05 A3018 RMK AO2 T02380047

KPAH 271753Z 32009G18KT 300V360 10SM CLR 25/00 A3016 RMK AO2 PK WND 32029/1702

KFAM 271756Z AUTO 30007KT 10SM CLR 22/04 A3020 RMK AO2 SLP233 T02220044 10222

KVIH 271753Z AUTO 01004KT 10SM CLR 23/04 A3020 RMK AO2 SLP223 T02280039 10228

KENL 271755Z AUTO 32006KT 10SM 22/04 A3017 RMK AO2 T02160041 10219 20046

KENL 271735Z AUTO 34009G15KT 10SM 22/04 A3017 RMK AO2 T02150041

KENL 271715Z AUTO 30011G16KT 10SM 21/04 A3017 RMK AO2 T02070036

KMTO 271753Z AUTO 31012G28KT 10SM BKN110 19/02 A3014 RMK AO2 PK WND 34029/1740

KFWC 271755Z AUTO 32007G14KT 10SM CLR 21/01 A3016 RMK AO1 T02070012 10207 20031

KFWC 271735Z AUTO 30008KT 270V340 10SM CLR 21/01 A3016 RMK AO1 T02050007

KFWC 271715Z AUTO 30007KT 270V340 10SM CLR 20/01 A3016 RMK AO1 T01980006

KCUL 271754Z AUTO 32014G19KT 10SM CLR 23/01 A3015 RMK AO2

KCUL 271736Z AUTO 33008G14KT 10SM CLR 23/01 A3015 RMK AO2

KCUL 271714Z AUTO 32010G17KT 10SM CLR 22/00 A3015 RMK AO2

KEVV 271754Z 30012G19KT 10SM CLR 21/01 A3015 RMK AO2 SLP207 T02110006 10217

KCEY 271755Z AUTO 33013G19KT 280V360 10SM CLR 23/M01 A3017 RMK AO1

KCEY 271735Z AUTO 33014G23KT 300V360 10SM CLR 23/00 A3017 RMK AO1

KCEY 271715Z AUTO 31014G23KT 280V340 10SM CLR 23/00 A3017 RMK AO1

KHOP 271755Z AUTO 30010G17KT 10SM CLR 23/02 A3014 RMK AO2 SLP207 T02260016 10227

KHOP 271728Z AUTO 34011G22KT 10SM CLR 22/01 A3014 RMK AO2 WSHFT 16 SLP207

KARG 271756Z AUTO 32007KT 10SM CLR 26/06 A3019 RMK AO2 SLP222 T02560061 10256

KJBR 271753Z AUTO 01005KT 10SM CLR 26/02 A3019 RMK AO2 SLP221 T02610017 10261

KALN 271750Z 34007G17KT 10SM CLR 21/02 A3020

KALN 271750Z 34007G17KT 10SM CLR 21/02 A3020

KCOU 271754Z 06003KT 10SM FEW110 24/04 A3019 RMK AO2 SLP220 T02390039 10244

KAJG 271735Z AUTO 29010KT 10SM CLR 21/M02 A3014 RMK AO2 T02061016

KAJG 271715Z AUTO 28014G20KT 10SM CLR 21/M02 A3014 RMK AO2 T02091017

KM30 271755Z AUTO 33012G17KT 10SM CLR 24/M02 A3017 RMK AO2 T02361019 10239 20035

KM30 271735Z AUTO 33007G15KT 270V340 10SM CLR 23/00 A3017 RMK AO2 T02330002

KM30 271715Z AUTO 32010G16KT 300V360 10SM CLR 23/00 A3017 RMK AO2 T02280002

KDEC 271754Z 31012G20KT 10SM SCT110 18/03 A3016 RMK AO2 SLP213 T01780033 10178

KIJX 271735Z AUTO 33010G15KT 10SM CLR 20/03 A3019 RMK AO2 T01960033

KIJX 271715Z AUTO 33010G17KT 10SM CLR 19/03 A3018 RMK AO2 T01870028


TAFS

KEVV 271720Z 2718/2818 33012G20KT P6SM SKC

        FM272300 36006KT P6SM SKC


Winds Aloft


Reports

No pilot reports found for area.



Area Forecast



Significant Weather

WAUS43 KKCI 271704 AAA CHIT WA 271704 AMD AIRMET TANGO UPDT 3 FOR TURB VALID UNTIL 272100 AIRMET TURB...IA MO IL IN KY AR TN MS AL...UPDT FROM 20NW DBQ TO 40SSW JOT TO 20SE IIU TO 30SSE LOZ TO 50SSW VXV TO 50NE VUZ TO 30NW IGB TO 40ESE LIT TO 60ESE SGF TO 60S DSM TO 40NNE DSM TO 20NW DBQ MOD TURB BLW 100. CONDS DVLPG BY 18Z. CONDS CONTG BYD 21Z ENDG 21-00Z.

WAUS44 KKCI 271704 AAA DFWT WA 271704 AMD AIRMET TANGO UPDT 3 FOR TURB VALID UNTIL 272100 AIRMET TURB...AR TN MS AL IA MO IL IN KY...UPDT FROM 20NW DBQ TO 40SSW JOT TO 20SE IIU TO 30SSE LOZ TO 50SSW VXV TO 50NE VUZ TO 30NW IGB TO 40ESE LIT TO 60ESE SGF TO 60S DSM TO 40NNE DSM TO 20NW DBQ MOD TURB BLW 100. CONDS DVLPG BY 18Z. CONDS CONTG BYD 21Z ENDG 21-00Z.